< Typhoon 199806 1998 Season Typhoon 199808 >
Typhoon 199807 (VICKI)
General InformationTrack Information on Google MapsDetailed Wind InformationList of All Images || NewsDisaster Info.ResourceGoogle EarthGE AnimationAtom FeedGeoJSON
Detalied Best Track (Time Zone = UTC)
Year Month Day Hour Lat. Long. Pressure (hPa) Wind (kt) Class Image Chart
1998 9 17 06 17.3 119.2 1002 0 2 Image Chart
1998 9 17 12 17.2 118.8 996 35 3 Image Chart
1998 9 17 18 17.1 118.6 990 45 3 Image Chart
1998 9 18 00 16.4 118.6 990 45 3 Image Chart
1998 9 18 06 16.2 118.8 985 50 4 Image Chart
1998 9 18 12 16.1 119.4 975 60 4 Image Chart
1998 9 18 18 16.1 119.9 975 60 4 Image Chart
1998 9 19 00 16.2 120.5 980 55 4 Image Chart
1998 9 19 06 16.6 121.2 985 50 4 Image Chart
1998 9 19 12 17.3 122.4 990 45 3 Image Chart
1998 9 19 18 17.7 123.1 990 45 3 Image Chart
1998 9 20 00 19.5 125.5 985 45 3 Image Chart
1998 9 20 06 20.6 126.4 985 45 3 Image Chart
1998 9 20 12 21.8 127.9 985 50 4 Image Chart
1998 9 20 18 23.4 128.8 980 55 4 Image Chart
1998 9 21 00 24.8 129.7 975 60 4 Image Chart
1998 9 21 03 25.5 130.4 975 60 4 Image Chart
1998 9 21 06 26.3 131.1 970 65 5 Image Chart
1998 9 21 09 26.9 131.6 970 65 5 Image Chart
1998 9 21 12 27.6 132.1 965 70 5 Image Chart
1998 9 21 15 28.4 132.6 965 70 5 Image Chart
1998 9 21 18 29.6 133.2 960 75 5 Image Chart
1998 9 21 21 30.8 133.8 960 75 5 Image Chart
1998 9 22 00 32.4 134.3 960 75 5 Image Chart
1998 9 22 03 33.4 134.8 960 75 5 Image Chart
1998 9 22 04 33.8 135.1 960 75 5 Image Chart
1998 9 22 06 35.1 136.1 975 60 4 Image Chart
1998 9 22 09 36.8 137.2 985 55 4 Image Chart
1998 9 22 12 38.5 139.3 990 50 4 Image Chart
1998 9 22 15 40.2 141.3 992 50 4 Image Chart
1998 9 22 18 41.2 143.4 994 45 3 Image Chart
1998 9 22 21 42.0 146.5 994 45 3 Image Chart
1998 9 23 00 42.0 147.5 1000 0 6 Image Chart
1998 9 23 06 43.2 154.6 1000 0 6 Image Chart
1998 9 23 12 44.7 161.5 1000 0 6 Image Chart
1998 9 23 18 45.7 168.5 1000 0 6 Image Chart
1998 9 24 00 46.6 173.5 1000 0 6 Image Chart
1998 9 24 06 49.0 179.1 1000 0 6 Image Chart
1998 9 24 12 52.3 184.6 996 0 6 Image Chart
Japan Meteorological Agency Best Track Data | Correction Date : 1999-01-11
< Typhoon 199806 1998 Season Typhoon 199808 >

Help